createdAt,value
2019-06-07T00:02:24.215Z,19.50
2019-06-07T00:04:54.586Z,19.40
2019-06-07T00:07:24.897Z,19.40
2019-06-07T00:09:55.273Z,19.20
2019-06-07T00:12:25.579Z,19.20
2019-06-07T00:14:55.950Z,19.30
2019-06-07T00:17:26.328Z,19.30
2019-06-07T00:19:56.718Z,19.40
2019-06-07T00:22:32.965Z,19.10
2019-06-07T00:24:59.040Z,19.10
2019-06-07T00:27:29.335Z,19.30
2019-06-07T00:29:59.701Z,19.30
2019-06-07T00:32:30.033Z,19.30
2019-06-07T00:35:00.378Z,19.30
2019-06-07T00:37:30.696Z,19.20
2019-06-07T00:40:13.965Z,19.00
2019-06-07T00:42:33.020Z,19.10
2019-06-07T00:45:04.091Z,19.10
2019-06-07T00:47:34.401Z,18.90
2019-06-07T00:50:05.971Z,18.80
2019-06-07T00:53:13.777Z,19.00
2019-06-07T00:55:13.789Z,19.20
2019-06-07T00:57:42.477Z,19.10
2019-06-07T01:00:15.024Z,19.20
2019-06-07T01:02:47.499Z,19.20
2019-06-07T01:05:22.121Z,19.20
2019-06-07T01:07:49.977Z,19.20
2019-06-07T01:10:42.822Z,19.20
2019-06-07T01:12:52.789Z,19.20
2019-06-07T01:15:28.552Z,19.20
2019-06-07T01:20:27.996Z,19.10
2019-06-07T01:22:58.319Z,19.00
2019-06-07T01:25:29.184Z,18.90
2019-06-07T01:27:59.590Z,18.80
2019-06-07T01:30:30.072Z,18.80
2019-06-07T01:33:00.393Z,18.80
2019-06-07T01:35:30.787Z,18.80
2019-06-07T01:38:01.093Z,18.90
2019-06-07T01:40:33.004Z,18.80
2019-06-07T01:43:03.472Z,18.80
2019-06-07T01:45:33.840Z,18.90
2019-06-07T01:48:04.146Z,18.90
2019-06-07T01:50:34.524Z,18.90
2019-06-07T01:53:04.841Z,18.90
2019-06-07T01:55:35.250Z,18.80
2019-06-07T01:58:05.547Z,18.80
2019-06-07T02:00:35.921Z,18.80
2019-06-07T02:03:06.250Z,18.90
2019-06-07T02:05:36.689Z,18.90
2019-06-07T02:08:06.969Z,18.90
2019-06-07T02:10:37.321Z,19.00
2019-06-07T02:13:07.721Z,19.10
2019-06-07T02:15:38.119Z,19.20
2019-06-07T02:18:08.439Z,19.20
2019-06-07T02:20:38.809Z,19.20
2019-06-07T02:23:09.117Z,19.10
2019-06-07T02:25:48.627Z,19.10
2019-06-07T02:28:27.401Z,19.10
2019-06-07T02:30:50.993Z,19.00
2019-06-07T02:33:15.361Z,19.00
2019-06-07T02:35:45.723Z,18.90
2019-06-07T02:38:16.027Z,18.80
2019-06-07T02:40:46.392Z,18.80
2019-06-07T02:43:16.695Z,18.80
2019-06-07T02:45:47.169Z,18.60
2019-06-07T02:48:18.477Z,18.60
2019-06-07T02:50:49.538Z,18.60
2019-06-07T02:53:19.863Z,18.50
2019-06-07T02:56:34.180Z,18.40
2019-06-07T02:58:22.166Z,18.40
2019-06-07T03:01:07.005Z,18.50
2019-06-07T03:03:24.635Z,18.60
2019-06-07T03:05:55.742Z,18.70
2019-06-07T03:08:28.296Z,18.80
2019-06-07T03:10:59.086Z,18.80
2019-06-07T03:13:34.194Z,18.80
2019-06-07T03:16:05.625Z,18.80
2019-06-07T03:18:55.977Z,18.60
2019-06-07T03:21:29.576Z,18.70
2019-06-07T03:24:00.777Z,18.80
2019-06-07T03:26:35.190Z,18.80
2019-06-07T03:29:03.497Z,18.70
2019-06-07T03:31:41.486Z,18.60
2019-06-07T03:34:05.780Z,18.60
2019-06-07T03:36:39.978Z,18.60
2019-06-07T03:39:08.097Z,18.50
2019-06-07T03:41:49.896Z,18.50
2019-06-07T03:44:10.378Z,18.50
2019-06-07T03:46:41.670Z,18.50
2019-06-07T03:49:12.279Z,18.40
2019-06-07T03:51:42.611Z,18.30
2019-06-07T03:54:12.930Z,18.30
2019-06-07T03:56:43.340Z,18.20
2019-06-07T03:59:13.661Z,18.20
2019-06-07T04:01:44.026Z,18.20
2019-06-07T04:04:14.324Z,18.30
2019-06-07T04:06:44.703Z,18.20
2019-06-07T04:09:15.003Z,18.40
2019-06-07T04:11:45.390Z,18.40
2019-06-07T04:14:15.687Z,18.50
2019-06-07T04:16:46.046Z,18.50
2019-06-07T04:19:16.364Z,18.50
2019-06-07T04:21:46.745Z,18.50
2019-06-07T04:24:17.065Z,18.50
2019-06-07T04:26:47.477Z,18.50
2019-06-07T04:29:33.142Z,18.50
2019-06-07T04:31:49.789Z,18.50
2019-06-07T04:34:20.078Z,18.50
2019-06-07T04:36:59.112Z,18.60
2019-06-07T04:39:25.594Z,18.60
2019-06-07T04:41:57.470Z,18.60
2019-06-07T04:44:28.875Z,18.70
2019-06-07T04:47:01.874Z,18.70
2019-06-07T04:49:38.163Z,18.70
2019-06-07T04:52:06.153Z,18.70
2019-06-07T04:54:38.579Z,18.70
2019-06-07T04:57:08.453Z,18.70
2019-06-07T05:00:11.340Z,18.70
2019-06-07T05:02:10.761Z,18.80
2019-06-07T05:04:42.315Z,18.80
2019-06-07T05:07:12.975Z,18.90
2019-06-07T05:09:43.513Z,19.00
2019-06-07T05:12:13.944Z,19.10
2019-06-07T05:14:44.444Z,19.10
2019-06-07T05:17:14.842Z,19.10
2019-06-07T05:19:45.145Z,19.10
2019-06-07T05:22:15.517Z,19.10
2019-06-07T05:24:45.819Z,19.10
2019-06-07T05:27:16.218Z,19.10
2019-06-07T05:30:08.805Z,19.20
2019-06-07T05:32:18.802Z,19.30
2019-06-07T05:34:49.136Z,19.40
2019-06-07T05:37:19.501Z,19.60
2019-06-07T05:39:50.867Z,19.70
2019-06-07T05:42:21.526Z,19.90
2019-06-07T05:44:51.826Z,19.80
2019-06-07T05:47:22.209Z,19.80
2019-06-07T05:49:52.585Z,20.00
2019-06-07T05:52:23.009Z,20.20
2019-06-07T05:54:53.302Z,20.20
2019-06-07T05:57:23.680Z,20.30
2019-06-07T05:59:54.052Z,20.30
2019-06-07T06:02:25.078Z,20.30
2019-06-07T06:04:56.379Z,20.40
2019-06-07T06:07:26.737Z,20.40
2019-06-07T06:09:58.065Z,20.50
2019-06-07T06:12:35.244Z,20.60
2019-06-07T06:15:01.371Z,20.30
2019-06-07T06:17:31.744Z,20.00
2019-06-07T06:20:03.578Z,20.10
2019-06-07T06:22:34.089Z,20.30
2019-06-07T06:30:12.116Z,20.70
2019-06-07T06:32:52.131Z,20.90
2019-06-07T06:35:14.918Z,21.00
2019-06-07T06:37:49.655Z,21.10
2019-06-07T06:40:17.645Z,21.10
2019-06-07T06:42:50.608Z,21.30
2019-06-07T06:45:22.374Z,21.40
2019-06-07T06:47:52.738Z,21.50
2019-06-07T06:50:23.253Z,21.50
2019-06-07T06:52:54.682Z,21.60
2019-06-07T06:55:25.434Z,21.70
2019-06-07T06:57:55.809Z,21.80
2019-06-07T07:00:58.761Z,21.90
2019-06-07T07:05:54.767Z,21.90
2019-06-07T07:08:23.649Z,22.10
2019-06-07T07:10:55.065Z,22.20
2019-06-07T07:13:25.661Z,22.30
2019-06-07T07:15:58.399Z,22.10
2019-06-07T07:18:27.957Z,22.20
2019-06-07T07:20:58.267Z,22.40
2019-06-07T07:23:28.661Z,22.50
2019-06-07T07:26:00.129Z,22.50
2019-06-07T07:28:30.760Z,22.70
2019-06-07T07:31:01.081Z,22.70
2019-06-07T07:34:20.750Z,22.70
2019-06-07T07:36:19.061Z,22.80
2019-06-07T07:38:35.390Z,22.90
2019-06-07T07:41:14.436Z,22.90
2019-06-07T07:43:37.666Z,23.00
2019-06-07T07:46:28.398Z,23.10
2019-06-07T07:48:39.981Z,23.00
2019-06-07T07:51:10.296Z,22.90
2019-06-07T07:53:52.123Z,22.70
2019-06-07T07:56:12.591Z,22.60
2019-06-07T07:58:43.059Z,22.70
2019-06-07T08:01:14.058Z,22.80
2019-06-07T08:03:46.052Z,23.00
2019-06-07T08:06:16.408Z,23.20
2019-06-07T08:08:46.785Z,23.40
2019-06-07T08:11:17.107Z,23.50
2019-06-07T08:13:48.112Z,23.60
2019-06-07T08:16:19.627Z,23.50
2019-06-07T08:18:53.305Z,23.60
2019-06-07T08:21:26.416Z,23.60
2019-06-07T08:23:58.415Z,23.50
2019-06-07T08:26:25.930Z,23.40
2019-06-07T08:28:59.724Z,23.30
2019-06-07T08:31:28.406Z,23.40
2019-06-07T08:34:00.666Z,23.60
2019-06-07T08:36:41.810Z,23.50
2019-06-07T08:39:07.202Z,23.40
2019-06-07T08:41:34.597Z,23.40
2019-06-07T08:44:22.850Z,23.50
2019-06-07T08:46:37.182Z,23.60
2019-06-07T08:49:07.653Z,23.40
2019-06-07T08:51:38.925Z,23.30
2019-06-07T08:54:22.278Z,23.50
2019-06-07T08:56:43.539Z,23.60
2019-06-07T08:59:14.202Z,23.70
2019-06-07T09:01:44.523Z,23.70
2019-06-07T09:04:14.890Z,23.60
2019-06-07T09:09:17.140Z,23.80
2019-06-07T09:11:47.457Z,23.90
2019-06-07T09:14:17.791Z,23.90
2019-06-07T09:16:48.062Z,24.00
2019-06-07T09:19:18.453Z,24.10
2019-06-07T09:21:48.728Z,24.20
2019-06-07T09:24:19.095Z,24.20
2019-06-07T09:26:49.420Z,24.30
2019-06-07T09:29:20.155Z,24.20
2019-06-07T09:31:53.248Z,24.20
2019-06-07T09:34:22.436Z,24.20
2019-06-07T09:36:53.156Z,24.30
2019-06-07T09:39:23.511Z,24.20
2019-06-07T09:41:53.820Z,24.20
2019-06-07T09:44:26.462Z,24.10
2019-06-07T09:47:19.583Z,24.20
2019-06-07T09:49:32.571Z,24.20
2019-06-07T09:52:02.932Z,24.10
2019-06-07T09:57:07.571Z,24.00
2019-06-07T09:59:36.013Z,24.10
2019-06-07T10:02:09.569Z,24.10
2019-06-07T10:04:38.336Z,24.00
2019-06-07T10:07:27.263Z,24.00
2019-06-07T10:12:13.518Z,23.80
2019-06-07T10:14:45.273Z,23.90
2019-06-07T10:17:15.953Z,24.00
2019-06-07T10:19:46.127Z,24.10
2019-06-07T10:22:16.438Z,24.20
2019-06-07T10:24:46.825Z,24.30
2019-06-07T10:27:17.114Z,24.30
2019-06-07T10:29:47.487Z,24.40
2019-06-07T10:32:17.754Z,24.50
2019-06-07T10:34:48.142Z,24.50
2019-06-07T10:37:18.485Z,24.50
2019-06-07T10:39:49.447Z,24.50
2019-06-07T10:42:19.915Z,24.60
2019-06-07T10:44:50.274Z,24.60
2019-06-07T10:47:20.546Z,24.70
2019-06-07T10:49:51.986Z,24.70
2019-06-07T10:52:22.204Z,24.70
2019-06-07T10:54:52.593Z,24.80
2019-06-07T10:57:23.122Z,24.80
2019-06-07T10:59:56.609Z,24.80
2019-06-07T11:02:26.950Z,24.80
2019-06-07T11:04:57.332Z,24.80
2019-06-07T11:07:27.640Z,24.80
2019-06-07T11:10:07.344Z,24.80
2019-06-07T11:12:29.982Z,24.80
2019-06-07T11:15:00.364Z,24.90
2019-06-07T11:17:30.669Z,24.80
2019-06-07T11:20:01.041Z,24.80
2019-06-07T11:22:31.344Z,24.90
2019-06-07T11:25:01.861Z,24.90
2019-06-07T11:27:32.533Z,24.90
2019-06-07T11:30:02.910Z,25.00
2019-06-07T11:32:35.345Z,25.00
2019-06-07T11:35:11.501Z,25.00
2019-06-07T11:37:42.032Z,25.10
2019-06-07T11:40:35.623Z,25.20
2019-06-07T11:42:44.650Z,25.20
2019-06-07T11:45:15.801Z,25.20
2019-06-07T11:47:46.064Z,25.20
2019-06-07T11:50:17.663Z,25.20
2019-06-07T11:52:48.045Z,25.20
2019-06-07T11:55:19.101Z,25.20
2019-06-07T11:57:49.478Z,25.20
2019-06-07T12:00:21.052Z,25.20
2019-06-07T12:02:51.276Z,25.20
2019-06-07T12:05:21.647Z,25.20
2019-06-07T12:07:51.936Z,25.20
2019-06-07T12:10:23.106Z,25.30
2019-06-07T12:12:53.517Z,25.40
2019-06-07T12:15:23.886Z,25.40
2019-06-07T12:17:54.153Z,25.40
2019-06-07T12:20:26.013Z,25.40
2019-06-07T12:22:56.322Z,25.40
2019-06-07T12:25:26.654Z,25.40
2019-06-07T12:27:57.004Z,25.50
2019-06-07T12:30:28.157Z,25.50
2019-06-07T12:32:59.867Z,25.50
2019-06-07T12:35:30.186Z,25.50
2019-06-07T12:38:00.585Z,25.50
2019-06-07T12:40:32.398Z,25.50
2019-06-07T12:43:03.033Z,25.60
2019-06-07T12:45:44.317Z,25.70
2019-06-07T12:48:05.530Z,25.70
2019-06-07T12:50:44.031Z,25.70
2019-06-07T12:53:07.890Z,25.70
2019-06-07T12:55:38.166Z,25.70
2019-06-07T12:58:08.482Z,25.70
2019-06-07T13:00:38.855Z,25.70
2019-06-07T13:03:09.143Z,25.70
2019-06-07T13:05:39.494Z,25.70
2019-06-07T13:08:09.783Z,25.70
2019-06-07T13:10:40.147Z,25.70
2019-06-07T13:13:10.402Z,25.70
2019-06-07T13:15:40.730Z,25.70
2019-06-07T13:18:14.854Z,25.70
2019-06-07T13:20:42.976Z,25.70
2019-06-07T13:23:13.267Z,25.80
2019-06-07T13:25:46.613Z,25.90
2019-06-07T13:28:17.098Z,26.00
2019-06-07T13:30:47.494Z,26.00
2019-06-07T13:33:19.012Z,26.00
2019-06-07T13:35:49.484Z,25.90
2019-06-07T13:38:26.457Z,26.00
2019-06-07T13:40:57.069Z,26.00
2019-06-07T13:43:28.179Z,26.00
2019-06-07T13:45:58.799Z,25.90
2019-06-07T13:48:29.051Z,26.00
2019-06-07T13:50:59.426Z,26.00
2019-06-07T13:53:29.687Z,26.00
2019-06-07T13:56:00.059Z,26.00
2019-06-07T13:58:30.309Z,26.00
2019-06-07T14:01:00.663Z,26.10
2019-06-07T14:03:33.821Z,26.10
2019-06-07T14:06:02.908Z,26.00
2019-06-07T14:08:33.178Z,26.10
2019-06-07T14:11:03.498Z,26.10
2019-06-07T14:13:33.794Z,26.10
2019-06-07T14:16:04.211Z,26.20
2019-06-07T14:18:34.493Z,26.30
2019-06-07T14:21:04.825Z,26.20
2019-06-07T14:23:48.364Z,26.10
2019-06-07T14:26:07.086Z,26.10
2019-06-07T14:28:37.403Z,26.20
2019-06-07T14:31:07.798Z,26.10
2019-06-07T14:33:38.078Z,26.20
2019-06-07T14:36:10.142Z,26.20
2019-06-07T14:38:40.446Z,26.20
2019-06-07T14:41:10.775Z,26.30
2019-06-07T14:43:41.167Z,26.30
2019-06-07T14:46:11.725Z,26.30
2019-06-07T14:48:42.189Z,26.30
2019-06-07T14:51:12.627Z,26.30
2019-06-07T14:53:42.941Z,26.30
2019-06-07T14:56:13.288Z,26.40
2019-06-07T14:58:43.720Z,26.40
2019-06-07T15:01:14.116Z,26.30
2019-06-07T15:03:44.410Z,26.30
2019-06-07T15:06:14.768Z,26.40
2019-06-07T15:08:45.029Z,26.40
2019-06-07T15:11:15.364Z,26.30
2019-06-07T15:13:45.634Z,26.20
2019-06-07T15:16:15.958Z,26.30
2019-06-07T15:18:46.224Z,26.30
2019-06-07T15:21:16.560Z,26.30
2019-06-07T15:23:46.822Z,26.30
2019-06-07T15:26:17.183Z,26.30
2019-06-07T15:28:47.437Z,26.40
2019-06-07T15:31:17.769Z,26.40
2019-06-07T15:33:48.051Z,26.50
2019-06-07T15:36:18.407Z,26.50
2019-06-07T15:38:48.696Z,26.50
2019-06-07T15:41:19.063Z,26.50
2019-06-07T15:43:49.320Z,26.50
2019-06-07T15:46:19.645Z,26.50
2019-06-07T15:48:49.938Z,26.40
2019-06-07T15:51:20.265Z,26.50
2019-06-07T15:53:50.568Z,26.50
2019-06-07T15:56:20.918Z,26.50
2019-06-07T15:58:51.174Z,26.60
2019-06-07T16:01:21.505Z,26.50
2019-06-07T16:03:53.327Z,26.50
2019-06-07T16:06:23.625Z,26.50
2019-06-07T16:08:53.906Z,26.50
2019-06-07T16:11:24.236Z,26.50
2019-06-07T16:13:54.539Z,26.50
2019-06-07T16:16:24.908Z,26.50
2019-06-07T16:18:55.214Z,26.50
2019-06-07T16:21:25.570Z,26.50
2019-06-07T16:23:55.864Z,26.50
2019-06-07T16:26:26.202Z,26.50
2019-06-07T16:28:57.353Z,26.50
2019-06-07T16:31:27.863Z,26.40
2019-06-07T16:33:58.158Z,26.30
2019-06-07T16:36:29.518Z,26.30
2019-06-07T16:38:59.805Z,26.30
2019-06-07T16:41:31.684Z,26.20
2019-06-07T16:44:02.019Z,26.20
2019-06-07T16:46:32.401Z,26.20
2019-06-07T16:49:02.704Z,26.10
2019-06-07T16:51:34.064Z,26.10
2019-06-07T16:54:04.366Z,26.00
2019-06-07T16:56:34.683Z,26.00
2019-06-07T16:59:04.961Z,26.00
2019-06-07T17:01:35.309Z,26.00
2019-06-07T17:04:05.580Z,26.00
2019-06-07T17:06:35.896Z,26.00
2019-06-07T17:09:08.001Z,26.00
2019-06-07T17:11:38.329Z,26.00
2019-06-07T17:14:08.629Z,25.90
2019-06-07T17:16:40.777Z,25.90
2019-06-07T17:19:11.307Z,25.90
2019-06-07T17:21:41.641Z,26.00
2019-06-07T17:24:11.943Z,26.00
2019-06-07T17:26:43.357Z,26.00
2019-06-07T17:29:13.698Z,25.90
2019-06-07T17:31:44.731Z,25.90
2019-06-07T17:34:15.458Z,25.80
2019-06-07T17:36:46.437Z,25.70
2019-06-07T17:39:16.669Z,25.60
2019-06-07T17:41:58.923Z,25.50
2019-06-07T17:44:18.947Z,25.40
2019-06-07T17:46:49.898Z,25.30
2019-06-07T17:49:20.365Z,25.30
2019-06-07T17:51:52.038Z,25.20
2019-06-07T17:54:22.582Z,25.20
2019-06-07T17:56:53.457Z,25.10
2019-06-07T17:59:24.909Z,25.10
2019-06-07T18:02:13.440Z,25.00
2019-06-07T18:04:27.236Z,25.00
2019-06-07T18:06:57.658Z,25.00
2019-06-07T18:09:28.425Z,25.00
2019-06-07T18:11:58.769Z,25.00
2019-06-07T18:14:29.040Z,24.90
2019-06-07T18:16:59.380Z,24.90
2019-06-07T18:19:29.682Z,24.80
2019-06-07T18:22:00.012Z,24.80
2019-06-07T18:24:30.314Z,24.70
2019-06-07T18:27:00.637Z,24.60
2019-06-07T18:29:30.897Z,24.60
2019-06-07T18:32:01.241Z,24.60
2019-06-07T18:37:18.113Z,24.50
2019-06-07T18:39:48.940Z,24.50
2019-06-07T18:42:19.336Z,24.40
2019-06-07T18:44:49.607Z,24.40
2019-06-07T18:47:19.986Z,24.30
2019-06-07T18:49:53.629Z,24.30
2019-06-07T18:52:33.310Z,24.30
2019-06-07T18:55:11.826Z,24.30
2019-06-07T18:57:43.118Z,24.30
2019-06-07T19:00:18.799Z,24.30
2019-06-07T19:02:49.719Z,24.30
2019-06-07T19:05:23.234Z,24.30
2019-06-07T19:07:54.658Z,24.30
2019-06-07T19:10:27.885Z,24.30
2019-06-07T19:13:00.356Z,24.30
2019-06-07T19:15:32.505Z,24.20
2019-06-07T19:18:05.751Z,24.20
2019-06-07T19:20:36.029Z,24.20
2019-06-07T19:23:09.083Z,24.20
2019-06-07T19:25:41.403Z,24.20
2019-06-07T19:28:11.779Z,24.10
2019-06-07T19:30:42.117Z,24.10
2019-06-07T19:33:13.522Z,24.00
2019-06-07T19:35:43.954Z,24.00
2019-06-07T19:38:16.961Z,24.00
2019-06-07T19:40:47.657Z,24.00
2019-06-07T19:43:18.041Z,23.90
2019-06-07T19:45:48.372Z,23.90
2019-06-07T19:48:20.046Z,23.90
2019-06-07T19:50:52.890Z,23.90
2019-06-07T19:53:23.294Z,23.90
2019-06-07T19:55:53.676Z,23.90
2019-06-07T19:58:25.095Z,23.90
2019-06-07T20:00:55.551Z,23.90
2019-06-07T20:03:27.004Z,23.90
2019-06-07T20:05:58.090Z,23.90
2019-06-07T20:08:28.521Z,23.90
2019-06-07T20:10:58.805Z,23.90
2019-06-07T20:13:29.129Z,23.80
2019-06-07T20:15:59.405Z,23.80
2019-06-07T20:18:29.741Z,23.80
2019-06-07T20:21:00.693Z,23.80
2019-06-07T20:23:31.200Z,23.80
2019-06-07T20:26:02.456Z,23.80
2019-06-07T20:28:32.981Z,23.80
2019-06-07T20:31:03.892Z,23.80
2019-06-07T20:33:34.455Z,23.70
2019-06-07T20:36:04.919Z,23.70
2019-06-07T20:38:35.230Z,23.70
2019-06-07T20:41:05.501Z,23.70
2019-06-07T20:43:35.844Z,23.70
2019-06-07T20:46:06.673Z,23.70
2019-06-07T20:48:38.272Z,23.70
2019-06-07T20:51:08.773Z,23.70
2019-06-07T20:53:39.177Z,23.60
2019-06-07T20:56:09.432Z,23.60
2019-06-07T20:58:41.757Z,23.60
2019-06-07T21:01:12.058Z,23.60
2019-06-07T21:03:43.968Z,23.60
2019-06-07T21:06:14.259Z,23.70
2019-06-07T21:08:44.597Z,23.70
2019-06-07T21:11:14.893Z,23.60
2019-06-07T21:13:45.225Z,23.70
2019-06-07T21:16:15.518Z,23.60
2019-06-07T21:18:45.878Z,23.70
2019-06-07T21:21:17.675Z,23.60
2019-06-07T21:23:48.054Z,23.60
2019-06-07T21:26:18.350Z,23.60
2019-06-07T21:28:49.979Z,23.60
2019-06-07T21:31:20.294Z,23.60
2019-06-07T21:33:50.656Z,23.60
2019-06-07T21:36:20.970Z,23.60
2019-06-07T21:38:51.343Z,23.60
2019-06-07T21:41:21.630Z,23.50
2019-06-07T21:43:51.996Z,23.50
2019-06-07T21:46:22.286Z,23.50
2019-06-07T21:48:52.644Z,23.50
2019-06-07T21:51:22.954Z,23.50
2019-06-07T21:53:53.315Z,23.50
2019-06-07T21:56:23.590Z,23.50
2019-06-07T21:58:53.958Z,23.50
2019-06-07T22:01:25.263Z,23.50
2019-06-07T22:03:55.642Z,23.50
2019-06-07T22:06:25.952Z,23.50
2019-06-07T22:08:56.322Z,23.50
2019-06-07T22:11:26.635Z,23.50
2019-06-07T22:13:56.973Z,23.50
2019-06-07T22:16:29.482Z,23.50
2019-06-07T22:18:59.238Z,23.40
2019-06-07T22:21:29.526Z,23.40
2019-06-07T22:23:59.890Z,23.40
2019-06-07T22:26:30.190Z,23.40
2019-06-07T22:29:00.528Z,23.40
2019-06-07T22:31:31.195Z,23.40
2019-06-07T22:34:01.920Z,23.40
2019-06-07T22:36:32.478Z,23.30
2019-06-07T22:39:04.237Z,23.40
2019-06-07T22:41:36.038Z,23.30
2019-06-07T22:44:07.057Z,23.30
2019-06-07T22:46:38.012Z,23.30
2019-06-07T22:49:09.158Z,23.30
2019-06-07T22:51:40.657Z,23.30
2019-06-07T22:54:11.724Z,23.30
2019-06-07T22:56:43.687Z,23.20
2019-06-07T22:59:16.966Z,23.20
2019-06-07T23:01:45.982Z,23.20
2019-06-07T23:04:16.703Z,23.20
2019-06-07T23:06:48.222Z,23.20
2019-06-07T23:09:19.802Z,23.20
2019-06-07T23:11:50.191Z,23.10
2019-06-07T23:14:20.541Z,23.10
2019-06-07T23:16:55.622Z,23.10
2019-06-07T23:19:22.807Z,23.10
2019-06-07T23:21:53.105Z,23.10
2019-06-07T23:24:23.481Z,23.10
2019-06-07T23:26:53.770Z,23.10
2019-06-07T23:29:24.126Z,23.00
2019-06-07T23:31:54.453Z,23.00
2019-06-07T23:34:25.798Z,23.00
2019-06-07T23:36:56.090Z,22.90
2019-06-07T23:39:26.489Z,22.90
2019-06-07T23:41:56.787Z,22.80
2019-06-07T23:44:27.146Z,22.50
2019-06-07T23:47:10.438Z,22.50
2019-06-07T23:49:29.452Z,22.50
2019-06-07T23:51:59.773Z,22.40
2019-06-07T23:54:30.146Z,22.40
2019-06-07T23:57:00.441Z,22.40
2019-06-07T23:59:30.816Z,22.40
